ICE37B BIKF-CYYZ
Flight info
| Callsign | ICE37B |
|---|---|
| Flight time | 5h 51m |
| Altitude | 30000 |
| Route | RALOV3A RALOV DCT 64N030W 63N040W 61N050W/M076F320 DCT URTAK/N0449F320 DCT ALSOP DCT JOVIE DCT MT/N0450F340 DCT PEKVO DCT IMEBA IMEBA9 |
| Aircraft | A21N/M-SDE2E3FGHIRWXY/LB1 |
Departure
| Time | 2026-05-06 12:43 |
|---|---|
| Airport | Keflavik International Airport (BIKF) |
Arrival
| Time | 2026-05-06 18:34 |
|---|---|
| Airport | Toronto Pearson International Airport (CYYZ) |
| Time | Latitude | Longitude | Altitude | Speed | Heading |
|---|---|---|---|---|---|
| 2026-05-06 12:09 | 63.99272 | -22.62574 | 151 ft | 0 kts | 50° |
| 2026-05-06 12:29 | 63.99260 | -22.62606 | 151 ft | 3 kts | 51° |
| 2026-05-06 12:29 | 63.99248 | -22.62649 | 147 ft | 4 kts | 78° |
| 2026-05-06 12:29 | 63.99252 | -22.62697 | 148 ft | 4 kts | 136° |
| 2026-05-06 12:29 | 63.99266 | -22.62720 | 148 ft | 1 kts | 151° |
| 2026-05-06 12:30 | 63.99268 | -22.62723 | 148 ft | 0 kts | 151° |
| 2026-05-06 12:34 | 63.99265 | -22.62719 | 148 ft | 2 kts | 151° |
| 2026-05-06 12:35 | 63.99241 | -22.62689 | 147 ft | 6 kts | 155° |
| 2026-05-06 12:35 | 63.99183 | -22.62656 | 148 ft | 11 kts | 136° |
| 2026-05-06 12:35 | 63.99173 | -22.62459 | 148 ft | 13 kts | 89° |
| 2026-05-06 12:35 | 63.99173 | -22.62248 | 148 ft | 14 kts | 92° |
| 2026-05-06 12:36 | 63.99172 | -22.62022 | 148 ft | 15 kts | 90° |
| 2026-05-06 12:36 | 63.99172 | -22.61772 | 151 ft | 16 kts | 89° |
| 2026-05-06 12:36 | 63.99173 | -22.61500 | 157 ft | 18 kts | 89° |
| 2026-05-06 12:36 | 63.99174 | -22.61209 | 164 ft | 19 kts | 90° |
| 2026-05-06 12:37 | 63.99148 | -22.60935 | 170 ft | 20 kts | 178° |
| 2026-05-06 12:37 | 63.99013 | -22.60938 | 176 ft | 19 kts | 180° |
| 2026-05-06 12:37 | 63.98877 | -22.60941 | 174 ft | 20 kts | 180° |
| 2026-05-06 12:37 | 63.98738 | -22.60942 | 171 ft | 20 kts | 180° |
| 2026-05-06 12:38 | 63.98598 | -22.60943 | 174 ft | 20 kts | 180° |
| 2026-05-06 12:38 | 63.98456 | -22.60941 | 175 ft | 20 kts | 179° |
| 2026-05-06 12:38 | 63.98313 | -22.60940 | 171 ft | 21 kts | 180° |
| 2026-05-06 12:38 | 63.98170 | -22.60940 | 171 ft | 21 kts | 180° |
| 2026-05-06 12:39 | 63.98023 | -22.60939 | 174 ft | 21 kts | 180° |
| 2026-05-06 12:39 | 63.97874 | -22.60938 | 175 ft | 22 kts | 180° |
| 2026-05-06 12:39 | 63.97723 | -22.60941 | 175 ft | 22 kts | 180° |
| 2026-05-06 12:39 | 63.97570 | -22.60942 | 172 ft | 22 kts | 180° |
| 2026-05-06 12:40 | 63.97416 | -22.60942 | 170 ft | 22 kts | 180° |
| 2026-05-06 12:40 | 63.97313 | -22.60941 | 167 ft | 22 kts | 180° |
| 2026-05-06 12:40 | 63.97157 | -22.60941 | 161 ft | 23 kts | 180° |
| 2026-05-06 12:40 | 63.96999 | -22.60942 | 156 ft | 23 kts | 180° |
| 2026-05-06 12:41 | 63.96839 | -22.60942 | 150 ft | 23 kts | 180° |
| 2026-05-06 12:41 | 63.96677 | -22.60941 | 144 ft | 23 kts | 180° |
| 2026-05-06 12:41 | 63.96527 | -22.60942 | 140 ft | 19 kts | 180° |
| 2026-05-06 12:41 | 63.96461 | -22.60746 | 145 ft | 20 kts | 89° |
| 2026-05-06 12:42 | 63.96487 | -22.60543 | 150 ft | 8 kts | 16° |
| 2026-05-06 12:42 | 63.96527 | -22.60542 | 152 ft | 0 kts | 360° |
| 2026-05-06 12:42 | 63.96564 | -22.60542 | 153 ft | 24 kts | 360° |
| 2026-05-06 12:42 | 63.96942 | -22.60541 | 165 ft | 84 kts | 0° |
| 2026-05-06 12:43 | 63.97728 | -22.60537 | 178 ft | 141 kts | 1° |
| 2026-05-06 12:43 | 63.98766 | -22.60550 | 715 ft | 149 kts | 4° |
| 2026-05-06 12:43 | 63.99811 | -22.60650 | 1547 ft | 151 kts | 4° |
| 2026-05-06 12:43 | 64.00877 | -22.60639 | 2332 ft | 157 kts | 6° |
| 2026-05-06 12:44 | 64.02038 | -22.60607 | 2647 ft | 176 kts | 6° |
| 2026-05-06 12:44 | 64.03305 | -22.60734 | 3042 ft | 194 kts | 356° |
| 2026-05-06 12:44 | 64.04656 | -22.61859 | 3361 ft | 223 kts | 335° |
| 2026-05-06 12:44 | 64.05890 | -22.64338 | 3650 ft | 254 kts | 306° |
| 2026-05-06 12:45 | 64.06450 | -22.68255 | 4244 ft | 269 kts | 277° |
| 2026-05-06 12:45 | 64.06459 | -22.72568 | 5009 ft | 274 kts | 270° |
| 2026-05-06 12:45 | 64.06348 | -22.81383 | 6458 ft | 281 kts | 271° |
| 2026-05-06 12:46 | 64.06313 | -22.85855 | 7174 ft | 284 kts | 273° |
| 2026-05-06 12:46 | 64.06292 | -22.90383 | 7863 ft | 287 kts | 274° |
| 2026-05-06 12:46 | 64.06278 | -22.94971 | 8538 ft | 291 kts | 272° |
| 2026-05-06 12:46 | 64.06264 | -22.99603 | 9277 ft | 292 kts | 272° |
| 2026-05-06 12:47 | 64.06252 | -23.04277 | 9948 ft | 295 kts | 272° |
| 2026-05-06 12:47 | 64.06237 | -23.08923 | 10559 ft | 300 kts | 272° |
| 2026-05-06 12:47 | 64.06218 | -23.13800 | 10873 ft | 314 kts | 272° |
| 2026-05-06 12:47 | 64.06195 | -23.18917 | 11137 ft | 330 kts | 272° |
| 2026-05-06 12:48 | 64.06171 | -23.24289 | 11396 ft | 346 kts | 272° |
| 2026-05-06 12:48 | 64.06150 | -23.29850 | 11923 ft | 352 kts | 272° |
| 2026-05-06 12:48 | 64.06123 | -23.35446 | 12562 ft | 354 kts | 272° |
| 2026-05-06 12:48 | 64.06089 | -23.41101 | 13211 ft | 357 kts | 271° |
| 2026-05-06 12:49 | 64.06057 | -23.46795 | 13891 ft | 359 kts | 272° |
| 2026-05-06 12:49 | 64.06028 | -23.52534 | 14421 ft | 364 kts | 272° |
| 2026-05-06 12:49 | 64.05994 | -23.58346 | 14941 ft | 368 kts | 273° |
| 2026-05-06 12:49 | 64.05958 | -23.64233 | 15509 ft | 371 kts | 272° |
| 2026-05-06 12:50 | 64.05914 | -23.70147 | 16103 ft | 374 kts | 272° |
| 2026-05-06 12:50 | 64.05866 | -23.76099 | 16702 ft | 376 kts | 272° |
| 2026-05-06 12:50 | 64.05813 | -23.82092 | 17232 ft | 380 kts | 272° |
| 2026-05-06 12:50 | 64.05734 | -23.88159 | 17774 ft | 384 kts | 268° |
| 2026-05-06 12:51 | 64.05200 | -23.94108 | 18283 ft | 392 kts | 253° |
| 2026-05-06 12:51 | 64.04198 | -23.99936 | 18809 ft | 396 kts | 249° |
| 2026-05-06 12:51 | 64.03123 | -24.05748 | 19266 ft | 399 kts | 249° |
| 2026-05-06 12:51 | 64.02053 | -24.11623 | 19712 ft | 402 kts | 249° |
| 2026-05-06 12:52 | 64.00981 | -24.17541 | 20182 ft | 405 kts | 249° |
| 2026-05-06 12:52 | 63.99903 | -24.23482 | 20643 ft | 407 kts | 249° |
| 2026-05-06 12:52 | 63.98816 | -24.29469 | 21080 ft | 410 kts | 249° |
| 2026-05-06 12:52 | 63.97730 | -24.35483 | 21566 ft | 412 kts | 249° |
| 2026-05-06 12:53 | 63.96631 | -24.41538 | 22012 ft | 415 kts | 249° |
| 2026-05-06 12:53 | 63.95516 | -24.47653 | 22422 ft | 418 kts | 248° |
| 2026-05-06 12:53 | 63.94387 | -24.53788 | 22875 ft | 421 kts | 248° |
| 2026-05-06 12:53 | 63.93257 | -24.59943 | 23297 ft | 423 kts | 248° |
| 2026-05-06 12:54 | 63.92114 | -24.66138 | 23707 ft | 426 kts | 248° |
| 2026-05-06 12:54 | 63.90962 | -24.72382 | 24072 ft | 429 kts | 248° |
| 2026-05-06 12:54 | 63.89820 | -24.78564 | 24408 ft | 431 kts | 248° |
| 2026-05-06 12:54 | 63.88824 | -24.84987 | 24737 ft | 432 kts | 258° |
| 2026-05-06 12:55 | 63.88461 | -24.91716 | 25069 ft | 429 kts | 273° |
| 2026-05-06 12:55 | 63.88654 | -24.98464 | 25407 ft | 429 kts | 278° |
| 2026-05-06 12:55 | 63.88960 | -25.05220 | 25736 ft | 431 kts | 278° |
| 2026-05-06 12:55 | 63.89260 | -25.12000 | 26062 ft | 433 kts | 278° |
| 2026-05-06 12:56 | 63.89542 | -25.18815 | 26401 ft | 435 kts | 278° |
| 2026-05-06 12:56 | 63.89808 | -25.25664 | 26746 ft | 436 kts | 277° |
| 2026-05-06 12:56 | 63.90070 | -25.32530 | 27089 ft | 437 kts | 277° |
| 2026-05-06 12:56 | 63.90327 | -25.39414 | 27391 ft | 439 kts | 277° |
| 2026-05-06 12:57 | 63.90582 | -25.46351 | 27678 ft | 441 kts | 278° |
| 2026-05-06 12:57 | 63.90831 | -25.53317 | 27986 ft | 443 kts | 277° |
| 2026-05-06 12:57 | 63.91078 | -25.60307 | 28300 ft | 444 kts | 278° |
| 2026-05-06 12:57 | 63.91329 | -25.67321 | 28640 ft | 445 kts | 277° |
| 2026-05-06 12:58 | 63.91578 | -25.74341 | 28914 ft | 447 kts | 277° |
| 2026-05-06 12:58 | 63.91812 | -25.81312 | 29175 ft | 449 kts | 278° |
| 2026-05-06 12:58 | 63.92054 | -25.88482 | 29483 ft | 449 kts | 277° |
| 2026-05-06 12:58 | 63.92290 | -25.95456 | 29899 ft | 447 kts | 277° |
| 2026-05-06 12:59 | 63.92523 | -26.02477 | 30287 ft | 446 kts | 277° |
| 2026-05-06 12:59 | 63.92745 | -26.09494 | 30393 ft | 444 kts | 277° |
| 2026-05-06 12:59 | 63.92970 | -26.16501 | 30387 ft | 444 kts | 278° |
| 2026-05-06 13:00 | 63.93410 | -26.30559 | 30360 ft | 444 kts | 278° |
| 2026-05-06 13:00 | 63.93828 | -26.44482 | 30373 ft | 444 kts | 277° |
| 2026-05-06 13:01 | 63.94242 | -26.58508 | 30376 ft | 445 kts | 276° |
| 2026-05-06 13:01 | 63.94633 | -26.72538 | 30384 ft | 443 kts | 276° |
| 2026-05-06 13:02 | 63.94996 | -26.86483 | 30371 ft | 441 kts | 277° |
| 2026-05-06 13:02 | 63.95339 | -27.00412 | 30384 ft | 440 kts | 276° |
| 2026-05-06 13:03 | 63.95685 | -27.14336 | 30387 ft | 441 kts | 276° |
| 2026-05-06 13:03 | 63.96026 | -27.28259 | 30381 ft | 441 kts | 276° |
| 2026-05-06 13:04 | 63.96342 | -27.42107 | 30390 ft | 441 kts | 276° |
| 2026-05-06 13:04 | 63.96660 | -27.56043 | 30371 ft | 442 kts | 276° |
| 2026-05-06 13:05 | 63.96968 | -27.70031 | 30375 ft | 441 kts | 276° |
| 2026-05-06 13:05 | 63.97257 | -27.83965 | 30396 ft | 440 kts | 276° |
| 2026-05-06 13:06 | 63.97523 | -27.97906 | 30399 ft | 440 kts | 276° |
| 2026-05-06 13:06 | 63.97779 | -28.11841 | 30405 ft | 440 kts | 276° |
| 2026-05-06 13:07 | 63.98024 | -28.25752 | 30402 ft | 440 kts | 276° |
| 2026-05-06 13:07 | 63.98261 | -28.39691 | 30404 ft | 440 kts | 275° |
| 2026-05-06 13:08 | 63.98483 | -28.53614 | 30418 ft | 440 kts | 276° |
| 2026-05-06 13:08 | 63.98683 | -28.67505 | 30414 ft | 438 kts | 276° |
| 2026-05-06 13:09 | 63.98875 | -28.81297 | 30419 ft | 438 kts | 275° |
| 2026-05-06 13:09 | 63.99067 | -28.95180 | 30419 ft | 438 kts | 276° |
| 2026-05-06 13:10 | 63.99244 | -29.09074 | 30421 ft | 440 kts | 275° |
| 2026-05-06 13:10 | 63.99370 | -29.23041 | 30432 ft | 441 kts | 276° |
| 2026-05-06 13:11 | 63.99503 | -29.37023 | 30438 ft | 441 kts | 275° |
| 2026-05-06 13:11 | 63.99632 | -29.50986 | 30416 ft | 440 kts | 276° |
| 2026-05-06 13:12 | 63.99720 | -29.64951 | 30447 ft | 439 kts | 275° |
| 2026-05-06 13:12 | 63.99824 | -29.78783 | 30450 ft | 440 kts | 275° |
| 2026-05-06 13:13 | 63.99896 | -29.92730 | 30458 ft | 440 kts | 275° |
| 2026-05-06 13:13 | 63.99539 | -30.06716 | 30459 ft | 445 kts | 266° |
| 2026-05-06 13:14 | 63.98638 | -30.20674 | 30461 ft | 446 kts | 266° |
| 2026-05-06 13:14 | 63.97732 | -30.34647 | 30474 ft | 446 kts | 266° |
| 2026-05-06 13:15 | 63.96816 | -30.48593 | 30467 ft | 444 kts | 265° |
| 2026-05-06 13:15 | 63.95883 | -30.62377 | 30475 ft | 444 kts | 265° |
| 2026-05-06 13:16 | 63.94944 | -30.76248 | 30478 ft | 444 kts | 266° |
| 2026-05-06 13:16 | 63.93995 | -30.90146 | 30479 ft | 445 kts | 265° |
| 2026-05-06 13:17 | 63.93026 | -31.04049 | 30475 ft | 445 kts | 265° |
| 2026-05-06 13:17 | 63.92043 | -31.17948 | 30457 ft | 445 kts | 265° |
| 2026-05-06 13:18 | 63.91052 | -31.31795 | 30486 ft | 443 kts | 265° |
| 2026-05-06 13:18 | 63.90061 | -31.45644 | 30494 ft | 444 kts | 265° |
| 2026-05-06 13:19 | 63.89051 | -31.59455 | 30499 ft | 444 kts | 265° |
| 2026-05-06 13:19 | 63.88023 | -31.73279 | 30497 ft | 444 kts | 265° |
| 2026-05-06 13:20 | 63.86987 | -31.87019 | 30503 ft | 444 kts | 265° |
| 2026-05-06 13:20 | 63.85933 | -32.00810 | 30460 ft | 444 kts | 265° |
| 2026-05-06 13:21 | 63.84859 | -32.14548 | 30505 ft | 441 kts | 265° |
| 2026-05-06 13:21 | 63.83796 | -32.28251 | 30514 ft | 441 kts | 265° |
| 2026-05-06 13:22 | 63.82716 | -32.41935 | 30517 ft | 441 kts | 264° |
| 2026-05-06 13:22 | 63.81633 | -32.55616 | 30513 ft | 441 kts | 264° |
| 2026-05-06 13:23 | 63.80518 | -32.69196 | 30519 ft | 441 kts | 264° |
| 2026-05-06 13:23 | 63.79384 | -32.82852 | 30496 ft | 441 kts | 265° |
| 2026-05-06 13:24 | 63.78236 | -32.96446 | 30507 ft | 440 kts | 265° |
| 2026-05-06 13:24 | 63.77071 | -33.10066 | 30523 ft | 441 kts | 265° |
| 2026-05-06 13:25 | 63.75896 | -33.23693 | 30523 ft | 442 kts | 265° |
| 2026-05-06 13:25 | 63.74717 | -33.37312 | 30525 ft | 442 kts | 265° |
| 2026-05-06 13:26 | 63.73513 | -33.50924 | 30531 ft | 442 kts | 265° |
| 2026-05-06 13:26 | 63.72316 | -33.64545 | 30534 ft | 442 kts | 265° |
| 2026-05-06 13:27 | 63.71093 | -33.78143 | 30541 ft | 442 kts | 265° |
| 2026-05-06 13:27 | 63.69864 | -33.91658 | 30540 ft | 442 kts | 264° |
| 2026-05-06 13:28 | 63.68808 | -34.02945 | 30540 ft | 442 kts | 264° |
| 2026-05-06 13:28 | 63.67547 | -34.16525 | 30541 ft | 442 kts | 264° |
| 2026-05-06 13:29 | 63.66283 | -34.30093 | 30543 ft | 442 kts | 264° |
| 2026-05-06 13:29 | 63.65006 | -34.43615 | 30487 ft | 442 kts | 264° |
| 2026-05-06 13:30 | 63.63727 | -34.57035 | 30530 ft | 439 kts | 265° |
| 2026-05-06 13:30 | 63.62450 | -34.70473 | 30552 ft | 439 kts | 265° |
| 2026-05-06 13:31 | 63.61141 | -34.83899 | 30563 ft | 439 kts | 264° |
| 2026-05-06 13:31 | 63.59815 | -34.97291 | 30554 ft | 439 kts | 264° |
| 2026-05-06 13:32 | 63.58472 | -35.10695 | 30556 ft | 439 kts | 264° |
| 2026-05-06 13:32 | 63.57131 | -35.24088 | 30486 ft | 440 kts | 264° |
| 2026-05-06 13:33 | 63.55790 | -35.37441 | 30542 ft | 437 kts | 264° |
| 2026-05-06 13:33 | 63.54416 | -35.50726 | 30567 ft | 437 kts | 264° |
| 2026-05-06 13:34 | 63.53051 | -35.63924 | 30567 ft | 437 kts | 264° |
| 2026-05-06 13:34 | 63.51659 | -35.77208 | 30555 ft | 438 kts | 263° |
| 2026-05-06 13:35 | 63.50243 | -35.90459 | 30568 ft | 438 kts | 263° |
| 2026-05-06 13:35 | 63.48840 | -36.03726 | 30497 ft | 438 kts | 263° |
| 2026-05-06 13:36 | 63.47407 | -36.16933 | 30545 ft | 435 kts | 263° |
| 2026-05-06 13:36 | 63.45973 | -36.30027 | 30561 ft | 436 kts | 263° |
| 2026-05-06 13:37 | 63.44537 | -36.43194 | 30569 ft | 436 kts | 263° |
| 2026-05-06 13:37 | 63.43073 | -36.56367 | 30567 ft | 436 kts | 263° |
| 2026-05-06 13:38 | 63.41587 | -36.69516 | 30564 ft | 436 kts | 263° |
| 2026-05-06 13:38 | 63.40101 | -36.82635 | 30511 ft | 436 kts | 263° |
| 2026-05-06 13:39 | 63.38607 | -36.95738 | 30555 ft | 437 kts | 263° |
| 2026-05-06 13:39 | 63.37106 | -37.08808 | 30550 ft | 438 kts | 263° |
| 2026-05-06 13:40 | 63.35579 | -37.21957 | 30568 ft | 439 kts | 263° |
| 2026-05-06 13:40 | 63.34040 | -37.35103 | 30568 ft | 439 kts | 262° |
| 2026-05-06 13:41 | 63.32484 | -37.48255 | 30566 ft | 439 kts | 263° |
| 2026-05-06 13:41 | 63.30915 | -37.61385 | 30509 ft | 439 kts | 263° |
| 2026-05-06 13:42 | 63.29323 | -37.74552 | 30554 ft | 441 kts | 263° |
| 2026-05-06 13:42 | 63.27725 | -37.87702 | 30565 ft | 441 kts | 262° |
| 2026-05-06 13:43 | 63.26117 | -38.00871 | 30566 ft | 441 kts | 262° |
| 2026-05-06 13:43 | 63.24502 | -38.14012 | 30566 ft | 441 kts | 262° |
| 2026-05-06 13:44 | 63.22878 | -38.27053 | 30573 ft | 442 kts | 262° |
| 2026-05-06 13:44 | 63.21195 | -38.40167 | 30497 ft | 443 kts | 262° |
| 2026-05-06 13:45 | 63.19497 | -38.53347 | 30557 ft | 445 kts | 262° |
| 2026-05-06 13:45 | 63.16986 | -38.73177 | 30584 ft | 445 kts | 263° |
| 2026-05-06 13:46 | 63.15287 | -38.86393 | 30568 ft | 446 kts | 262° |
| 2026-05-06 13:46 | 63.13545 | -38.99497 | 30568 ft | 446 kts | 262° |
| 2026-05-06 13:47 | 63.11807 | -39.12656 | 30542 ft | 446 kts | 263° |
| 2026-05-06 13:47 | 63.10073 | -39.25818 | 30543 ft | 446 kts | 262° |
| 2026-05-06 13:48 | 63.08337 | -39.38990 | 30571 ft | 447 kts | 262° |
| 2026-05-06 13:48 | 63.06558 | -39.52160 | 30576 ft | 448 kts | 262° |
| 2026-05-06 13:49 | 63.04766 | -39.65226 | 30579 ft | 448 kts | 261° |
| 2026-05-06 13:49 | 63.02963 | -39.78354 | 30577 ft | 447 kts | 262° |
| 2026-05-06 13:50 | 63.01163 | -39.91483 | 30519 ft | 448 kts | 261° |
| 2026-05-06 13:50 | 62.99282 | -40.04563 | 30565 ft | 448 kts | 259° |
| 2026-05-06 13:51 | 62.97286 | -40.17551 | 30581 ft | 448 kts | 258° |
| 2026-05-06 13:51 | 62.95270 | -40.30551 | 30581 ft | 448 kts | 258° |
| 2026-05-06 13:52 | 62.93248 | -40.43513 | 30584 ft | 449 kts | 258° |
| 2026-05-06 13:52 | 62.91208 | -40.56438 | 30586 ft | 449 kts | 258° |
| 2026-05-06 13:53 | 62.89190 | -40.69290 | 30546 ft | 448 kts | 257° |
| 2026-05-06 13:53 | 62.87127 | -40.82202 | 30583 ft | 448 kts | 257° |
| 2026-05-06 13:54 | 62.85051 | -40.95098 | 30587 ft | 448 kts | 257° |
| 2026-05-06 13:54 | 62.82976 | -41.07952 | 30587 ft | 448 kts | 256° |
| 2026-05-06 13:55 | 62.80886 | -41.20797 | 30584 ft | 448 kts | 256° |
| 2026-05-06 13:55 | 62.78781 | -41.33617 | 30593 ft | 449 kts | 256° |
| 2026-05-06 13:56 | 62.76678 | -41.46371 | 30598 ft | 449 kts | 256° |
| 2026-05-06 13:56 | 62.74551 | -41.59188 | 30597 ft | 449 kts | 256° |
| 2026-05-06 13:57 | 62.72398 | -41.71994 | 30594 ft | 449 kts | 256° |
| 2026-05-06 13:57 | 62.70244 | -41.84761 | 30594 ft | 449 kts | 256° |
| 2026-05-06 13:58 | 62.68074 | -41.97528 | 30594 ft | 449 kts | 256° |
| 2026-05-06 13:58 | 62.65898 | -42.10275 | 30597 ft | 449 kts | 255° |
| 2026-05-06 13:59 | 62.63706 | -42.22897 | 30592 ft | 448 kts | 254° |
| 2026-05-06 13:59 | 62.61502 | -42.35568 | 30596 ft | 448 kts | 254° |
| 2026-05-06 14:00 | 62.59289 | -42.48231 | 30596 ft | 448 kts | 254° |
| 2026-05-06 14:00 | 62.57071 | -42.60877 | 30598 ft | 448 kts | 254° |
| 2026-05-06 14:01 | 62.54855 | -42.73486 | 30594 ft | 448 kts | 254° |
| 2026-05-06 14:01 | 62.52618 | -42.86094 | 30569 ft | 448 kts | 252° |
| 2026-05-06 14:02 | 62.50354 | -42.98677 | 30580 ft | 448 kts | 252° |
| 2026-05-06 14:02 | 62.48096 | -43.11243 | 30586 ft | 448 kts | 252° |
| 2026-05-06 14:03 | 62.45813 | -43.23782 | 30576 ft | 448 kts | 252° |
| 2026-05-06 14:03 | 62.43535 | -43.36243 | 30579 ft | 449 kts | 252° |
| 2026-05-06 14:04 | 62.41237 | -43.48767 | 30580 ft | 449 kts | 252° |
| 2026-05-06 14:04 | 62.38924 | -43.61291 | 30569 ft | 450 kts | 251° |
| 2026-05-06 14:05 | 62.36591 | -43.73806 | 30556 ft | 450 kts | 251° |
| 2026-05-06 14:05 | 62.34251 | -43.86305 | 30553 ft | 449 kts | 250° |
| 2026-05-06 14:06 | 62.31904 | -43.98777 | 30549 ft | 450 kts | 250° |
| 2026-05-06 14:06 | 62.29556 | -44.11169 | 30549 ft | 450 kts | 250° |
| 2026-05-06 14:07 | 62.27182 | -44.23593 | 30529 ft | 450 kts | 250° |
| 2026-05-06 14:07 | 62.24801 | -44.36033 | 30544 ft | 451 kts | 249° |
| 2026-05-06 14:08 | 62.22391 | -44.48463 | 30455 ft | 451 kts | 249° |
| 2026-05-06 14:08 | 62.19978 | -44.60891 | 30451 ft | 451 kts | 249° |
| 2026-05-06 14:09 | 62.17556 | -44.73284 | 30432 ft | 450 kts | 249° |
| 2026-05-06 14:09 | 62.15127 | -44.85635 | 30430 ft | 451 kts | 249° |
| 2026-05-06 14:10 | 62.12691 | -44.97911 | 30412 ft | 453 kts | 248° |
| 2026-05-06 14:10 | 62.10215 | -45.10328 | 30419 ft | 457 kts | 248° |
| 2026-05-06 14:11 | 62.07724 | -45.22777 | 30390 ft | 455 kts | 247° |
| 2026-05-06 14:11 | 62.05236 | -45.35117 | 30402 ft | 453 kts | 247° |
| 2026-05-06 14:12 | 62.02730 | -45.47463 | 30407 ft | 452 kts | 247° |
| 2026-05-06 14:12 | 62.00243 | -45.59675 | 30423 ft | 453 kts | 247° |
| 2026-05-06 14:13 | 61.97705 | -45.72031 | 30424 ft | 459 kts | 246° |
| 2026-05-06 14:13 | 61.95152 | -45.84454 | 30421 ft | 459 kts | 246° |
| 2026-05-06 14:14 | 61.92578 | -45.96861 | 30439 ft | 461 kts | 245° |
| 2026-05-06 14:14 | 61.89993 | -46.09179 | 30397 ft | 460 kts | 245° |
| 2026-05-06 14:15 | 61.87382 | -46.21546 | 30392 ft | 458 kts | 245° |
| 2026-05-06 14:15 | 61.84786 | -46.33879 | 30377 ft | 458 kts | 244° |
| 2026-05-06 14:16 | 61.82592 | -46.44163 | 30388 ft | 460 kts | 244° |
| 2026-05-06 14:16 | 61.79957 | -46.56503 | 30386 ft | 462 kts | 244° |
| 2026-05-06 14:17 | 61.76870 | -46.70850 | 30385 ft | 461 kts | 244° |
| 2026-05-06 14:17 | 61.74198 | -46.83143 | 30365 ft | 462 kts | 244° |
| 2026-05-06 14:18 | 61.71955 | -46.93451 | 30365 ft | 463 kts | 243° |
| 2026-05-06 14:18 | 61.69262 | -47.05694 | 30369 ft | 460 kts | 243° |
| 2026-05-06 14:19 | 61.66566 | -47.17946 | 30368 ft | 458 kts | 242° |
| 2026-05-06 14:19 | 61.63884 | -47.30108 | 30355 ft | 458 kts | 242° |
| 2026-05-06 14:20 | 61.61190 | -47.42245 | 30346 ft | 457 kts | 242° |
| 2026-05-06 14:20 | 61.58494 | -47.54261 | 30327 ft | 458 kts | 242° |
| 2026-05-06 14:21 | 61.55765 | -47.66325 | 30311 ft | 456 kts | 242° |
| 2026-05-06 14:21 | 61.53036 | -47.78303 | 30301 ft | 455 kts | 241° |
| 2026-05-06 14:22 | 61.50299 | -47.90302 | 30304 ft | 455 kts | 242° |
| 2026-05-06 14:22 | 61.47555 | -48.02263 | 30301 ft | 455 kts | 241° |
| 2026-05-06 14:23 | 61.44833 | -48.14118 | 30301 ft | 455 kts | 241° |
| 2026-05-06 14:23 | 61.42066 | -48.26015 | 30277 ft | 455 kts | 241° |
| 2026-05-06 14:24 | 61.39290 | -48.37913 | 30264 ft | 455 kts | 241° |
| 2026-05-06 14:24 | 61.36511 | -48.49803 | 30252 ft | 455 kts | 241° |
| 2026-05-06 14:25 | 61.33719 | -48.61624 | 30247 ft | 454 kts | 240° |
| 2026-05-06 14:25 | 61.30921 | -48.73431 | 30249 ft | 455 kts | 241° |
| 2026-05-06 14:26 | 61.28132 | -48.85151 | 30245 ft | 454 kts | 240° |
| 2026-05-06 14:26 | 61.25314 | -48.96902 | 30257 ft | 456 kts | 240° |
| 2026-05-06 14:27 | 61.22452 | -49.08726 | 30248 ft | 457 kts | 239° |
| 2026-05-06 14:27 | 61.19620 | -49.20467 | 30242 ft | 458 kts | 239° |
| 2026-05-06 14:28 | 61.16760 | -49.32247 | 30241 ft | 458 kts | 239° |
| 2026-05-06 14:28 | 61.13899 | -49.44013 | 30236 ft | 457 kts | 239° |
| 2026-05-06 14:29 | 61.11010 | -49.55763 | 30235 ft | 457 kts | 239° |
| 2026-05-06 14:29 | 61.08116 | -49.67453 | 30246 ft | 456 kts | 238° |
| 2026-05-06 14:30 | 61.05217 | -49.79104 | 30231 ft | 456 kts | 238° |
| 2026-05-06 14:30 | 61.02325 | -49.90668 | 30231 ft | 456 kts | 238° |
| 2026-05-06 14:31 | 60.99386 | -50.02251 | 30219 ft | 455 kts | 237° |
| 2026-05-06 14:31 | 60.96349 | -50.13700 | 30219 ft | 455 kts | 236° |
| 2026-05-06 14:32 | 60.93299 | -50.25105 | 30219 ft | 452 kts | 235° |
| 2026-05-06 14:32 | 60.90279 | -50.36362 | 30212 ft | 451 kts | 235° |
| 2026-05-06 14:33 | 60.87240 | -50.47639 | 30198 ft | 451 kts | 235° |
| 2026-05-06 14:33 | 60.84190 | -50.58882 | 30195 ft | 451 kts | 235° |
| 2026-05-06 14:34 | 60.81128 | -50.70119 | 30180 ft | 451 kts | 234° |
| 2026-05-06 14:34 | 60.78058 | -50.81311 | 30213 ft | 450 kts | 234° |
| 2026-05-06 14:35 | 60.75032 | -50.92337 | 30181 ft | 446 kts | 234° |
| 2026-05-06 14:35 | 60.71973 | -51.03380 | 30170 ft | 446 kts | 234° |
| 2026-05-06 14:36 | 60.68908 | -51.14413 | 30169 ft | 446 kts | 234° |
| 2026-05-06 14:36 | 60.65845 | -51.25407 | 30148 ft | 446 kts | 234° |
| 2026-05-06 14:37 | 60.62765 | -51.36376 | 30143 ft | 445 kts | 233° |
| 2026-05-06 14:37 | 60.59716 | -51.47169 | 30140 ft | 432 kts | 235° |
| 2026-05-06 14:38 | 60.56755 | -51.57640 | 30124 ft | 429 kts | 236° |
| 2026-05-06 14:38 | 60.53758 | -51.68168 | 30114 ft | 429 kts | 236° |
| 2026-05-06 14:39 | 60.50760 | -51.78648 | 30115 ft | 428 kts | 235° |
| 2026-05-06 14:39 | 60.47758 | -51.89120 | 30094 ft | 428 kts | 235° |
| 2026-05-06 14:40 | 60.44748 | -51.99548 | 30116 ft | 426 kts | 235° |
| 2026-05-06 14:40 | 60.41805 | -52.09721 | 30094 ft | 418 kts | 236° |
| 2026-05-06 14:41 | 60.38853 | -52.19868 | 30073 ft | 419 kts | 235° |
| 2026-05-06 14:41 | 60.35890 | -52.29979 | 30070 ft | 419 kts | 236° |
| 2026-05-06 14:42 | 60.32931 | -52.40059 | 30060 ft | 419 kts | 236° |
| 2026-05-06 14:42 | 60.30269 | -52.49101 | 30051 ft | 417 kts | 237° |
| 2026-05-06 14:43 | 60.27296 | -52.59157 | 30076 ft | 413 kts | 235° |
| 2026-05-06 14:43 | 60.24379 | -52.68960 | 30070 ft | 403 kts | 235° |
| 2026-05-06 14:44 | 60.21480 | -52.78660 | 30036 ft | 403 kts | 234° |
| 2026-05-06 14:45 | 60.17108 | -52.93169 | 30250 ft | 408 kts | 234° |
| 2026-05-06 14:45 | 60.15635 | -52.98048 | 30489 ft | 409 kts | 234° |
| 2026-05-06 14:45 | 60.14157 | -53.02952 | 30749 ft | 410 kts | 234° |
| 2026-05-06 14:45 | 60.12682 | -53.07834 | 30988 ft | 410 kts | 234° |
| 2026-05-06 14:46 | 60.11203 | -53.12734 | 31239 ft | 410 kts | 233° |
| 2026-05-06 14:46 | 60.09714 | -53.17630 | 31488 ft | 411 kts | 234° |
| 2026-05-06 14:46 | 60.08237 | -53.22474 | 31710 ft | 412 kts | 233° |
| 2026-05-06 14:46 | 60.06745 | -53.27366 | 31914 ft | 412 kts | 233° |
| 2026-05-06 14:47 | 60.05239 | -53.32277 | 32008 ft | 415 kts | 233° |
| 2026-05-06 14:47 | 60.02224 | -53.42114 | 31985 ft | 416 kts | 233° |
| 2026-05-06 14:48 | 59.99199 | -53.51937 | 31954 ft | 416 kts | 233° |
| 2026-05-06 14:48 | 59.96163 | -53.61737 | 31952 ft | 415 kts | 233° |
| 2026-05-06 14:49 | 59.93119 | -53.71527 | 31954 ft | 414 kts | 233° |
| 2026-05-06 14:49 | 59.90080 | -53.81271 | 31948 ft | 413 kts | 233° |
| 2026-05-06 14:50 | 59.87030 | -53.90991 | 31936 ft | 413 kts | 232° |
| 2026-05-06 14:50 | 59.83968 | -54.00717 | 31935 ft | 414 kts | 232° |
| 2026-05-06 14:51 | 59.80917 | -54.10354 | 31930 ft | 415 kts | 233° |
| 2026-05-06 14:51 | 59.77840 | -54.20046 | 31914 ft | 415 kts | 233° |
| 2026-05-06 14:52 | 59.74756 | -54.29714 | 31910 ft | 416 kts | 232° |
| 2026-05-06 14:52 | 59.71666 | -54.39366 | 31892 ft | 415 kts | 233° |
| 2026-05-06 14:53 | 59.68593 | -54.48937 | 31888 ft | 415 kts | 233° |
| 2026-05-06 14:53 | 59.65489 | -54.58577 | 31890 ft | 415 kts | 232° |
| 2026-05-06 14:54 | 59.62374 | -54.68183 | 31872 ft | 414 kts | 232° |
| 2026-05-06 14:54 | 59.59256 | -54.77770 | 31857 ft | 413 kts | 232° |
| 2026-05-06 14:55 | 59.56129 | -54.87331 | 31871 ft | 413 kts | 232° |
| 2026-05-06 14:55 | 59.53011 | -54.96834 | 31850 ft | 413 kts | 232° |
| 2026-05-06 14:56 | 59.49890 | -55.06321 | 31827 ft | 413 kts | 232° |
| 2026-05-06 14:56 | 59.46758 | -55.15784 | 31827 ft | 413 kts | 232° |
| 2026-05-06 14:57 | 59.43632 | -55.25183 | 31827 ft | 413 kts | 232° |
| 2026-05-06 14:57 | 59.40488 | -55.34615 | 31805 ft | 413 kts | 232° |
| 2026-05-06 14:58 | 59.37331 | -55.44056 | 31814 ft | 415 kts | 231° |
| 2026-05-06 14:58 | 59.34151 | -55.53523 | 31787 ft | 416 kts | 231° |
| 2026-05-06 14:59 | 59.30955 | -55.62987 | 31782 ft | 416 kts | 231° |
| 2026-05-06 14:59 | 59.27750 | -55.72410 | 31770 ft | 416 kts | 231° |
| 2026-05-06 15:00 | 59.24544 | -55.81823 | 31772 ft | 416 kts | 231° |
| 2026-05-06 15:00 | 59.21352 | -55.91158 | 31802 ft | 416 kts | 231° |
| 2026-05-06 15:01 | 59.18127 | -56.00568 | 31780 ft | 418 kts | 230° |
| 2026-05-06 15:01 | 59.14867 | -56.10063 | 31759 ft | 425 kts | 230° |
| 2026-05-06 15:02 | 59.11557 | -56.19625 | 31732 ft | 426 kts | 230° |
| 2026-05-06 15:02 | 59.08237 | -56.29180 | 31731 ft | 426 kts | 230° |
| 2026-05-06 15:03 | 59.04916 | -56.38704 | 31706 ft | 426 kts | 230° |
| 2026-05-06 15:03 | 59.01599 | -56.48228 | 31733 ft | 424 kts | 230° |
| 2026-05-06 15:04 | 58.98275 | -56.57677 | 31698 ft | 424 kts | 230° |
| 2026-05-06 15:04 | 58.94962 | -56.67072 | 31690 ft | 424 kts | 230° |
| 2026-05-06 15:05 | 58.91622 | -56.76497 | 31666 ft | 425 kts | 230° |
| 2026-05-06 15:05 | 58.88276 | -56.85894 | 31663 ft | 424 kts | 230° |
| 2026-05-06 15:06 | 58.85498 | -56.93706 | 31659 ft | 424 kts | 230° |
| 2026-05-06 15:06 | 58.82157 | -57.03063 | 31657 ft | 421 kts | 231° |
| 2026-05-06 15:07 | 58.78815 | -57.12351 | 31649 ft | 421 kts | 231° |
| 2026-05-06 15:07 | 58.75471 | -57.21631 | 31630 ft | 421 kts | 230° |
| 2026-05-06 15:08 | 58.72119 | -57.30887 | 31629 ft | 421 kts | 230° |
| 2026-05-06 15:08 | 58.68759 | -57.40125 | 31604 ft | 421 kts | 230° |
| 2026-05-06 15:09 | 58.65384 | -57.49342 | 31629 ft | 420 kts | 230° |
| 2026-05-06 15:09 | 58.62030 | -57.58493 | 31597 ft | 418 kts | 230° |
| 2026-05-06 15:10 | 58.58689 | -57.67558 | 31616 ft | 419 kts | 230° |
| 2026-05-06 15:10 | 58.55306 | -57.76718 | 31589 ft | 423 kts | 230° |
| 2026-05-06 15:11 | 58.51904 | -57.85881 | 31575 ft | 422 kts | 230° |
| 2026-05-06 15:11 | 58.48499 | -57.95027 | 31567 ft | 423 kts | 230° |
| 2026-05-06 15:12 | 58.45154 | -58.04240 | 31555 ft | 421 kts | 232° |
| 2026-05-06 15:12 | 58.41901 | -58.13469 | 31540 ft | 419 kts | 232° |
| 2026-05-06 15:13 | 58.38645 | -58.22671 | 31529 ft | 419 kts | 232° |
| 2026-05-06 15:13 | 58.35396 | -58.31808 | 31522 ft | 419 kts | 232° |
| 2026-05-06 15:14 | 58.32126 | -58.40978 | 31516 ft | 418 kts | 232° |
| 2026-05-06 15:14 | 58.28849 | -58.50121 | 31531 ft | 418 kts | 232° |
| 2026-05-06 15:15 | 58.25563 | -58.59256 | 31504 ft | 418 kts | 232° |
| 2026-05-06 15:15 | 58.22274 | -58.68376 | 31496 ft | 418 kts | 232° |
| 2026-05-06 15:16 | 58.18980 | -58.77470 | 31499 ft | 418 kts | 232° |
| 2026-05-06 15:16 | 58.15674 | -58.86530 | 31491 ft | 418 kts | 232° |
| 2026-05-06 15:17 | 58.12365 | -58.95586 | 31491 ft | 418 kts | 232° |
| 2026-05-06 15:17 | 58.09077 | -59.04550 | 31488 ft | 416 kts | 232° |
| 2026-05-06 15:18 | 58.05765 | -59.13536 | 31516 ft | 418 kts | 232° |
| 2026-05-06 15:18 | 58.02425 | -59.22559 | 31488 ft | 420 kts | 232° |
| 2026-05-06 15:19 | 57.99071 | -59.31597 | 31485 ft | 420 kts | 232° |
| 2026-05-06 15:19 | 57.95721 | -59.40623 | 31479 ft | 420 kts | 232° |
| 2026-05-06 15:20 | 57.92369 | -59.49634 | 31479 ft | 420 kts | 232° |
| 2026-05-06 15:20 | 57.89023 | -59.58552 | 31478 ft | 420 kts | 232° |
| 2026-05-06 15:21 | 57.85651 | -59.67521 | 31478 ft | 420 kts | 232° |
| 2026-05-06 15:21 | 57.82270 | -59.76482 | 31477 ft | 420 kts | 232° |
| 2026-05-06 15:22 | 57.78881 | -59.85401 | 31482 ft | 420 kts | 232° |
| 2026-05-06 15:22 | 57.75493 | -59.94308 | 31481 ft | 420 kts | 232° |
| 2026-05-06 15:23 | 57.72099 | -60.03196 | 31494 ft | 418 kts | 232° |
| 2026-05-06 15:23 | 57.68717 | -60.12018 | 31488 ft | 417 kts | 232° |
| 2026-05-06 15:24 | 57.65324 | -60.20833 | 31494 ft | 417 kts | 232° |
| 2026-05-06 15:24 | 57.61950 | -60.29572 | 31492 ft | 417 kts | 232° |
| 2026-05-06 15:25 | 57.58546 | -60.38346 | 31496 ft | 417 kts | 232° |
| 2026-05-06 15:25 | 57.55138 | -60.47095 | 31497 ft | 417 kts | 232° |
| 2026-05-06 15:26 | 57.51719 | -60.55846 | 31514 ft | 417 kts | 232° |
| 2026-05-06 15:26 | 57.48298 | -60.64578 | 31508 ft | 417 kts | 232° |
| 2026-05-06 15:27 | 57.44873 | -60.73294 | 31510 ft | 417 kts | 231° |
| 2026-05-06 15:27 | 57.41440 | -60.81983 | 31514 ft | 417 kts | 231° |
| 2026-05-06 15:28 | 57.38003 | -60.90670 | 31519 ft | 417 kts | 231° |
| 2026-05-06 15:28 | 57.34588 | -60.99256 | 31524 ft | 414 kts | 231° |
| 2026-05-06 15:29 | 57.31176 | -61.07802 | 31526 ft | 413 kts | 231° |
| 2026-05-06 15:29 | 57.27759 | -61.16337 | 31527 ft | 413 kts | 231° |
| 2026-05-06 15:30 | 57.24329 | -61.24855 | 31528 ft | 412 kts | 231° |
| 2026-05-06 15:30 | 57.20901 | -61.33350 | 31529 ft | 413 kts | 231° |
| 2026-05-06 15:31 | 57.17460 | -61.41846 | 31521 ft | 413 kts | 231° |
| 2026-05-06 15:31 | 57.14045 | -61.50247 | 31521 ft | 411 kts | 231° |
| 2026-05-06 15:32 | 57.08881 | -61.62866 | 31529 ft | 411 kts | 231° |
| 2026-05-06 15:32 | 57.05445 | -61.71269 | 31532 ft | 411 kts | 231° |
| 2026-05-06 15:33 | 57.01994 | -61.79662 | 31527 ft | 412 kts | 231° |
| 2026-05-06 15:33 | 56.98514 | -61.88114 | 31532 ft | 416 kts | 231° |
| 2026-05-06 15:34 | 56.95024 | -61.96539 | 31528 ft | 413 kts | 231° |
| 2026-05-06 15:34 | 56.91543 | -62.04901 | 31522 ft | 413 kts | 231° |
| 2026-05-06 15:35 | 56.88057 | -62.13259 | 31529 ft | 413 kts | 231° |
| 2026-05-06 15:35 | 56.84351 | -62.21260 | 31531 ft | 412 kts | 226° |
| 2026-05-06 15:36 | 56.80487 | -62.28908 | 31535 ft | 412 kts | 226° |
| 2026-05-06 15:36 | 56.76597 | -62.36590 | 31545 ft | 411 kts | 226° |
| 2026-05-06 15:37 | 56.72721 | -62.44218 | 31546 ft | 409 kts | 226° |
| 2026-05-06 15:37 | 56.68850 | -62.51821 | 31550 ft | 409 kts | 226° |
| 2026-05-06 15:38 | 56.64966 | -62.59411 | 31560 ft | 410 kts | 226° |
| 2026-05-06 15:38 | 56.61076 | -62.66978 | 31557 ft | 410 kts | 226° |
| 2026-05-06 15:39 | 56.57212 | -62.74501 | 31564 ft | 409 kts | 226° |
| 2026-05-06 15:39 | 56.53352 | -62.81995 | 31566 ft | 405 kts | 226° |
| 2026-05-06 15:40 | 56.49490 | -62.89457 | 31569 ft | 406 kts | 226° |
| 2026-05-06 15:40 | 56.45616 | -62.96906 | 31582 ft | 406 kts | 226° |
| 2026-05-06 15:41 | 56.41742 | -63.04346 | 31585 ft | 406 kts | 226° |
| 2026-05-06 15:41 | 56.37863 | -63.11773 | 31593 ft | 406 kts | 226° |
| 2026-05-06 15:42 | 56.33990 | -63.19150 | 31596 ft | 405 kts | 226° |
| 2026-05-06 15:42 | 56.30117 | -63.26525 | 31612 ft | 405 kts | 226° |
| 2026-05-06 15:43 | 56.26236 | -63.33887 | 31617 ft | 410 kts | 226° |
| 2026-05-06 15:43 | 56.22300 | -63.41305 | 31618 ft | 410 kts | 226° |
| 2026-05-06 15:44 | 56.18363 | -63.48733 | 31618 ft | 410 kts | 226° |
| 2026-05-06 15:44 | 56.14433 | -63.56102 | 31622 ft | 406 kts | 226° |
| 2026-05-06 15:45 | 56.10528 | -63.63406 | 31625 ft | 405 kts | 226° |
| 2026-05-06 15:45 | 56.06624 | -63.70685 | 31625 ft | 405 kts | 226° |
| 2026-05-06 15:46 | 56.02712 | -63.77962 | 31624 ft | 405 kts | 226° |
| 2026-05-06 15:46 | 55.98822 | -63.85165 | 31632 ft | 405 kts | 226° |
| 2026-05-06 15:47 | 55.94906 | -63.92415 | 31632 ft | 405 kts | 226° |
| 2026-05-06 15:47 | 55.90981 | -63.99655 | 31638 ft | 405 kts | 226° |
| 2026-05-06 15:48 | 55.87053 | -64.06865 | 31643 ft | 405 kts | 226° |
| 2026-05-06 15:48 | 55.83149 | -64.14011 | 31649 ft | 405 kts | 225° |
| 2026-05-06 15:49 | 55.79212 | -64.21200 | 31644 ft | 405 kts | 225° |
| 2026-05-06 15:49 | 55.75273 | -64.28360 | 31641 ft | 405 kts | 225° |
| 2026-05-06 15:50 | 55.71352 | -64.35484 | 31644 ft | 402 kts | 225° |
| 2026-05-06 15:50 | 55.67431 | -64.42572 | 31646 ft | 402 kts | 225° |
| 2026-05-06 15:51 | 55.63497 | -64.49643 | 31648 ft | 402 kts | 225° |
| 2026-05-06 15:51 | 55.59583 | -64.56678 | 31649 ft | 402 kts | 225° |
| 2026-05-06 15:52 | 55.55675 | -64.63667 | 31651 ft | 402 kts | 225° |
| 2026-05-06 15:52 | 55.51760 | -64.70683 | 31657 ft | 398 kts | 225° |
| 2026-05-06 15:53 | 55.47852 | -64.77657 | 31660 ft | 403 kts | 225° |
| 2026-05-06 15:53 | 55.43901 | -64.84679 | 31650 ft | 404 kts | 225° |
| 2026-05-06 15:54 | 55.39954 | -64.91662 | 31650 ft | 401 kts | 225° |
| 2026-05-06 15:54 | 55.36681 | -64.97441 | 31652 ft | 401 kts | 225° |
| 2026-05-06 15:55 | 55.32747 | -65.04373 | 31651 ft | 398 kts | 225° |
| 2026-05-06 15:55 | 55.28837 | -65.11219 | 31656 ft | 397 kts | 225° |
| 2026-05-06 15:56 | 55.24927 | -65.18065 | 31655 ft | 397 kts | 225° |
| 2026-05-06 15:56 | 55.21016 | -65.24904 | 31657 ft | 397 kts | 225° |
| 2026-05-06 15:57 | 55.17091 | -65.31735 | 31658 ft | 398 kts | 225° |
| 2026-05-06 15:57 | 55.13190 | -65.38503 | 31640 ft | 397 kts | 225° |
| 2026-05-06 15:58 | 55.09294 | -65.45249 | 31654 ft | 394 kts | 225° |
| 2026-05-06 15:58 | 55.05389 | -65.51982 | 31661 ft | 394 kts | 225° |
| 2026-05-06 15:59 | 55.01491 | -65.58694 | 31661 ft | 394 kts | 225° |
| 2026-05-06 15:59 | 54.97579 | -65.65391 | 31663 ft | 394 kts | 225° |
| 2026-05-06 16:00 | 54.93658 | -65.72094 | 31664 ft | 394 kts | 225° |
| 2026-05-06 16:00 | 54.89761 | -65.78748 | 31666 ft | 392 kts | 225° |
| 2026-05-06 16:01 | 54.85865 | -65.85374 | 31660 ft | 392 kts | 225° |
| 2026-05-06 16:01 | 54.81989 | -65.91950 | 31667 ft | 392 kts | 225° |
| 2026-05-06 16:02 | 54.78076 | -65.98547 | 31668 ft | 393 kts | 225° |
| 2026-05-06 16:02 | 54.74160 | -66.05138 | 31669 ft | 393 kts | 225° |
| 2026-05-06 16:03 | 54.70239 | -66.11715 | 31703 ft | 389 kts | 225° |
| 2026-05-06 16:03 | 54.66311 | -66.18285 | 31678 ft | 395 kts | 225° |
| 2026-05-06 16:04 | 54.62361 | -66.24876 | 31675 ft | 395 kts | 225° |
| 2026-05-06 16:04 | 54.58405 | -66.31468 | 31678 ft | 395 kts | 225° |
| 2026-05-06 16:05 | 54.54447 | -66.38057 | 31672 ft | 396 kts | 225° |
| 2026-05-06 16:05 | 54.50481 | -66.44634 | 31668 ft | 393 kts | 225° |
| 2026-05-06 16:06 | 54.46591 | -66.51073 | 31675 ft | 391 kts | 225° |
| 2026-05-06 16:06 | 54.42670 | -66.57550 | 31678 ft | 391 kts | 225° |
| 2026-05-06 16:07 | 54.38738 | -66.64011 | 31678 ft | 391 kts | 225° |
| 2026-05-06 16:07 | 54.34807 | -66.70454 | 31685 ft | 391 kts | 225° |
| 2026-05-06 16:08 | 54.30870 | -66.76896 | 31677 ft | 391 kts | 225° |
| 2026-05-06 16:08 | 54.26951 | -66.83282 | 31688 ft | 388 kts | 225° |
| 2026-05-06 16:09 | 54.23068 | -66.89610 | 31691 ft | 388 kts | 225° |
| 2026-05-06 16:09 | 54.19151 | -66.95964 | 31684 ft | 389 kts | 224° |
| 2026-05-06 16:10 | 54.15365 | -67.02553 | 31688 ft | 388 kts | 229° |
| 2026-05-06 16:10 | 54.11866 | -67.09579 | 31688 ft | 388 kts | 230° |
| 2026-05-06 16:11 | 54.08368 | -67.16568 | 31678 ft | 386 kts | 230° |
| 2026-05-06 16:11 | 54.04880 | -67.23507 | 31687 ft | 384 kts | 230° |
| 2026-05-06 16:12 | 54.01455 | -67.30305 | 31689 ft | 380 kts | 230° |
| 2026-05-06 16:12 | 53.97986 | -67.37161 | 31701 ft | 386 kts | 229° |
| 2026-05-06 16:13 | 53.94467 | -67.44079 | 31697 ft | 387 kts | 229° |
| 2026-05-06 16:13 | 53.90936 | -67.50999 | 31693 ft | 388 kts | 229° |
| 2026-05-06 16:14 | 53.87414 | -67.57928 | 31694 ft | 388 kts | 229° |
| 2026-05-06 16:14 | 53.83880 | -67.64850 | 31694 ft | 388 kts | 229° |
| 2026-05-06 16:15 | 53.80375 | -67.71708 | 31694 ft | 388 kts | 229° |
| 2026-05-06 16:15 | 53.76839 | -67.78603 | 31692 ft | 388 kts | 229° |
| 2026-05-06 16:16 | 53.73300 | -67.85476 | 31697 ft | 388 kts | 229° |
| 2026-05-06 16:16 | 53.69762 | -67.92310 | 31690 ft | 384 kts | 229° |
| 2026-05-06 16:17 | 53.66248 | -67.99116 | 31698 ft | 385 kts | 229° |
| 2026-05-06 16:17 | 53.62726 | -68.05903 | 31697 ft | 385 kts | 229° |
| 2026-05-06 16:18 | 53.59196 | -68.12666 | 31699 ft | 384 kts | 229° |
| 2026-05-06 16:18 | 53.55667 | -68.19420 | 31698 ft | 384 kts | 229° |
| 2026-05-06 16:19 | 53.52157 | -68.26122 | 31684 ft | 384 kts | 229° |
| 2026-05-06 16:19 | 53.48648 | -68.32801 | 31698 ft | 380 kts | 229° |
| 2026-05-06 16:20 | 53.45143 | -68.39450 | 31706 ft | 380 kts | 229° |
| 2026-05-06 16:20 | 53.41624 | -68.46089 | 31706 ft | 380 kts | 229° |
| 2026-05-06 16:21 | 53.38106 | -68.52734 | 31709 ft | 380 kts | 229° |
| 2026-05-06 16:21 | 53.34583 | -68.59359 | 31708 ft | 380 kts | 229° |
| 2026-05-06 16:22 | 53.31074 | -68.65950 | 31700 ft | 377 kts | 229° |
| 2026-05-06 16:22 | 53.27602 | -68.72448 | 31707 ft | 377 kts | 229° |
| 2026-05-06 16:23 | 53.24105 | -68.78986 | 31710 ft | 377 kts | 229° |
| 2026-05-06 16:23 | 53.20601 | -68.85517 | 31706 ft | 377 kts | 229° |
| 2026-05-06 16:24 | 53.17093 | -68.92026 | 31713 ft | 377 kts | 229° |
| 2026-05-06 16:24 | 53.13586 | -68.98526 | 31713 ft | 377 kts | 229° |
| 2026-05-06 16:25 | 53.10098 | -69.04972 | 31709 ft | 374 kts | 229° |
| 2026-05-06 16:25 | 53.06636 | -69.11358 | 31722 ft | 374 kts | 229° |
| 2026-05-06 16:26 | 53.03151 | -69.17771 | 31724 ft | 374 kts | 229° |
| 2026-05-06 16:26 | 52.99657 | -69.24178 | 31723 ft | 374 kts | 229° |
| 2026-05-06 16:27 | 52.96167 | -69.30560 | 31751 ft | 377 kts | 229° |
| 2026-05-06 16:27 | 52.92628 | -69.37025 | 31719 ft | 377 kts | 229° |
| 2026-05-06 16:28 | 52.89113 | -69.43415 | 31718 ft | 375 kts | 229° |
| 2026-05-06 16:28 | 52.85598 | -69.49799 | 31723 ft | 375 kts | 229° |
| 2026-05-06 16:29 | 52.82075 | -69.56182 | 31720 ft | 375 kts | 229° |
| 2026-05-06 16:29 | 52.78553 | -69.62546 | 31724 ft | 375 kts | 229° |
| 2026-05-06 16:30 | 52.75623 | -69.67826 | 31729 ft | 375 kts | 229° |
| 2026-05-06 16:30 | 52.71528 | -69.75200 | 31712 ft | 371 kts | 229° |
| 2026-05-06 16:31 | 52.68020 | -69.81488 | 31720 ft | 372 kts | 229° |
| 2026-05-06 16:31 | 52.64507 | -69.87758 | 31719 ft | 372 kts | 229° |
| 2026-05-06 16:32 | 52.61023 | -69.93988 | 31719 ft | 372 kts | 229° |
| 2026-05-06 16:32 | 52.57499 | -70.00240 | 31716 ft | 372 kts | 229° |
| 2026-05-06 16:33 | 52.53972 | -70.06496 | 31692 ft | 371 kts | 228° |
| 2026-05-06 16:34 | 52.48743 | -70.15713 | 31720 ft | 367 kts | 228° |
| 2026-05-06 16:34 | 52.45261 | -70.21862 | 31725 ft | 367 kts | 228° |
| 2026-05-06 16:35 | 52.41760 | -70.28029 | 31737 ft | 373 kts | 228° |
| 2026-05-06 16:35 | 52.38215 | -70.34268 | 31735 ft | 374 kts | 228° |
| 2026-05-06 16:36 | 52.34675 | -70.40466 | 31704 ft | 374 kts | 228° |
| 2026-05-06 16:36 | 52.31137 | -70.46634 | 31727 ft | 372 kts | 228° |
| 2026-05-06 16:37 | 52.27597 | -70.52781 | 31728 ft | 371 kts | 228° |
| 2026-05-06 16:37 | 52.24061 | -70.58932 | 31729 ft | 371 kts | 228° |
| 2026-05-06 16:38 | 52.20511 | -70.65063 | 31731 ft | 371 kts | 228° |
| 2026-05-06 16:38 | 52.16961 | -70.71185 | 31732 ft | 371 kts | 228° |
| 2026-05-06 16:39 | 52.13436 | -70.77257 | 31720 ft | 363 kts | 228° |
| 2026-05-06 16:39 | 52.09968 | -70.83218 | 31729 ft | 363 kts | 228° |
| 2026-05-06 16:40 | 52.06523 | -70.89153 | 31730 ft | 363 kts | 228° |
| 2026-05-06 16:40 | 52.03043 | -70.95108 | 31731 ft | 363 kts | 228° |
| 2026-05-06 16:41 | 51.99550 | -71.01054 | 31734 ft | 363 kts | 228° |
| 2026-05-06 16:41 | 51.96652 | -71.05988 | 31732 ft | 363 kts | 228° |
| 2026-05-06 16:42 | 51.93163 | -71.11926 | 31737 ft | 364 kts | 228° |
| 2026-05-06 16:42 | 51.89638 | -71.17907 | 31750 ft | 371 kts | 228° |
| 2026-05-06 16:43 | 51.86060 | -71.23950 | 31735 ft | 372 kts | 228° |
| 2026-05-06 16:43 | 51.82475 | -71.29996 | 31737 ft | 372 kts | 227° |
| 2026-05-06 16:44 | 51.78920 | -71.35982 | 31736 ft | 372 kts | 227° |
| 2026-05-06 16:44 | 51.75339 | -71.41995 | 31719 ft | 368 kts | 228° |
| 2026-05-06 16:45 | 51.71813 | -71.47903 | 31734 ft | 365 kts | 228° |
| 2026-05-06 16:45 | 51.68280 | -71.53801 | 31738 ft | 365 kts | 228° |
| 2026-05-06 16:46 | 51.64746 | -71.59691 | 31738 ft | 366 kts | 227° |
| 2026-05-06 16:46 | 51.61202 | -71.65580 | 31741 ft | 366 kts | 227° |
| 2026-05-06 16:47 | 51.57658 | -71.71456 | 31740 ft | 366 kts | 227° |
| 2026-05-06 16:47 | 51.54156 | -71.77260 | 31730 ft | 358 kts | 228° |
| 2026-05-06 16:48 | 51.50673 | -71.82995 | 31737 ft | 358 kts | 227° |
| 2026-05-06 16:48 | 51.47187 | -71.88712 | 31737 ft | 358 kts | 227° |
| 2026-05-06 16:49 | 51.43705 | -71.94436 | 31742 ft | 358 kts | 227° |
| 2026-05-06 16:49 | 51.40224 | -72.00141 | 31783 ft | 358 kts | 227° |
| 2026-05-06 16:50 | 51.36675 | -72.05938 | 31738 ft | 366 kts | 227° |
| 2026-05-06 16:50 | 51.33118 | -72.11740 | 31743 ft | 365 kts | 227° |
| 2026-05-06 16:51 | 51.29582 | -72.17513 | 31745 ft | 365 kts | 227° |
| 2026-05-06 16:51 | 51.26027 | -72.23309 | 31751 ft | 366 kts | 227° |
| 2026-05-06 16:52 | 51.22447 | -72.29082 | 31748 ft | 366 kts | 227° |
| 2026-05-06 16:52 | 51.18867 | -72.34848 | 31747 ft | 365 kts | 227° |
| 2026-05-06 16:53 | 51.15338 | -72.40558 | 31721 ft | 356 kts | 227° |
| 2026-05-06 16:53 | 51.11844 | -72.46182 | 31742 ft | 357 kts | 227° |
| 2026-05-06 16:54 | 51.08355 | -72.51798 | 31745 ft | 357 kts | 227° |
| 2026-05-06 16:54 | 51.04855 | -72.57416 | 31760 ft | 357 kts | 227° |
| 2026-05-06 16:55 | 51.01346 | -72.63006 | 31746 ft | 357 kts | 227° |
| 2026-05-06 16:55 | 50.97853 | -72.68554 | 31732 ft | 355 kts | 227° |
| 2026-05-06 16:56 | 50.94389 | -72.74065 | 31742 ft | 352 kts | 227° |
| 2026-05-06 16:56 | 50.90924 | -72.79555 | 31753 ft | 352 kts | 227° |
| 2026-05-06 16:57 | 50.87456 | -72.85058 | 31769 ft | 356 kts | 227° |
| 2026-05-06 16:57 | 50.83924 | -72.90658 | 31761 ft | 363 kts | 227° |
| 2026-05-06 16:58 | 50.80343 | -72.96308 | 31754 ft | 364 kts | 227° |
| 2026-05-06 16:58 | 50.76784 | -73.01896 | 31749 ft | 357 kts | 226° |
| 2026-05-06 16:59 | 50.73259 | -73.07425 | 31748 ft | 357 kts | 227° |
| 2026-05-06 16:59 | 50.69738 | -73.12959 | 31750 ft | 357 kts | 226° |
| 2026-05-06 17:00 | 50.66211 | -73.18472 | 31757 ft | 357 kts | 226° |
| 2026-05-06 17:00 | 50.62680 | -73.23966 | 31759 ft | 357 kts | 226° |
| 2026-05-06 17:01 | 50.59151 | -73.29458 | 31726 ft | 355 kts | 226° |
| 2026-05-06 17:01 | 50.55693 | -73.34828 | 31747 ft | 351 kts | 226° |
| 2026-05-06 17:02 | 50.52210 | -73.40226 | 31758 ft | 352 kts | 226° |
| 2026-05-06 17:02 | 50.48714 | -73.45618 | 31758 ft | 352 kts | 226° |
| 2026-05-06 17:03 | 50.45221 | -73.50996 | 31756 ft | 352 kts | 226° |
| 2026-05-06 17:03 | 50.41726 | -73.56381 | 31757 ft | 352 kts | 226° |
| 2026-05-06 17:04 | 50.38235 | -73.61741 | 31744 ft | 350 kts | 226° |
| 2026-05-06 17:04 | 50.34737 | -73.67103 | 31765 ft | 355 kts | 226° |
| 2026-05-06 17:05 | 50.31209 | -73.72492 | 31753 ft | 357 kts | 226° |
| 2026-05-06 17:05 | 50.27626 | -73.77951 | 31759 ft | 357 kts | 226° |
| 2026-05-06 17:06 | 50.24093 | -73.83332 | 31754 ft | 357 kts | 226° |
| 2026-05-06 17:06 | 50.20530 | -73.88743 | 31719 ft | 356 kts | 226° |
| 2026-05-06 17:07 | 50.16993 | -73.94099 | 31745 ft | 354 kts | 226° |
| 2026-05-06 17:07 | 50.13457 | -73.99441 | 31757 ft | 354 kts | 226° |
| 2026-05-06 17:08 | 50.09918 | -74.04775 | 31755 ft | 354 kts | 226° |
| 2026-05-06 17:08 | 50.06376 | -74.10109 | 31747 ft | 354 kts | 226° |
| 2026-05-06 17:09 | 50.02830 | -74.15435 | 31765 ft | 354 kts | 226° |
| 2026-05-06 17:09 | 49.99282 | -74.20756 | 31762 ft | 354 kts | 226° |
| 2026-05-06 17:10 | 49.95754 | -74.26029 | 31757 ft | 354 kts | 226° |
| 2026-05-06 17:10 | 49.92197 | -74.31334 | 31761 ft | 355 kts | 225° |
| 2026-05-06 17:11 | 49.88628 | -74.36631 | 31751 ft | 355 kts | 225° |
| 2026-05-06 17:11 | 49.85064 | -74.41940 | 31783 ft | 355 kts | 226° |
| 2026-05-06 17:12 | 49.81447 | -74.47308 | 31725 ft | 360 kts | 225° |
| 2026-05-06 17:12 | 49.77427 | -74.51910 | 31735 ft | 357 kts | 215° |
| 2026-05-06 17:13 | 49.73133 | -74.55793 | 31740 ft | 358 kts | 215° |
| 2026-05-06 17:13 | 49.68839 | -74.59685 | 31740 ft | 358 kts | 215° |
| 2026-05-06 17:14 | 49.64575 | -74.63550 | 31746 ft | 358 kts | 215° |
| 2026-05-06 17:14 | 49.60282 | -74.67455 | 31828 ft | 357 kts | 215° |
| 2026-05-06 17:14 | 49.58140 | -74.69408 | 32067 ft | 358 kts | 215° |
| 2026-05-06 17:15 | 49.55988 | -74.71363 | 32291 ft | 360 kts | 215° |
| 2026-05-06 17:15 | 49.53821 | -74.73327 | 32509 ft | 362 kts | 215° |
| 2026-05-06 17:15 | 49.51650 | -74.75292 | 32721 ft | 364 kts | 215° |
| 2026-05-06 17:15 | 49.49458 | -74.77274 | 32929 ft | 365 kts | 215° |
| 2026-05-06 17:16 | 49.47262 | -74.79257 | 33128 ft | 367 kts | 215° |
| 2026-05-06 17:16 | 49.45051 | -74.81248 | 33324 ft | 369 kts | 215° |
| 2026-05-06 17:16 | 49.42829 | -74.83247 | 33517 ft | 371 kts | 215° |
| 2026-05-06 17:16 | 49.40627 | -74.85228 | 33696 ft | 371 kts | 215° |
| 2026-05-06 17:17 | 49.38399 | -74.87232 | 33794 ft | 371 kts | 215° |
| 2026-05-06 17:17 | 49.33934 | -74.91237 | 33788 ft | 371 kts | 215° |
| 2026-05-06 17:18 | 49.29485 | -74.95221 | 33776 ft | 370 kts | 215° |
| 2026-05-06 17:18 | 49.25026 | -74.99207 | 33775 ft | 370 kts | 215° |
| 2026-05-06 17:19 | 49.20570 | -75.03172 | 33764 ft | 370 kts | 215° |
| 2026-05-06 17:19 | 49.16152 | -75.07106 | 33775 ft | 369 kts | 215° |
| 2026-05-06 17:20 | 49.11707 | -75.11054 | 33777 ft | 370 kts | 215° |
| 2026-05-06 17:20 | 49.07258 | -75.14996 | 33780 ft | 370 kts | 215° |
| 2026-05-06 17:21 | 49.02809 | -75.18929 | 33779 ft | 370 kts | 215° |
| 2026-05-06 17:21 | 48.98376 | -75.22840 | 33769 ft | 366 kts | 215° |
| 2026-05-06 17:22 | 48.93966 | -75.26717 | 33779 ft | 366 kts | 215° |
| 2026-05-06 17:22 | 48.89551 | -75.30591 | 33783 ft | 366 kts | 215° |
| 2026-05-06 17:23 | 48.85137 | -75.34470 | 33780 ft | 366 kts | 215° |
| 2026-05-06 17:23 | 48.80721 | -75.38332 | 33770 ft | 366 kts | 215° |
| 2026-05-06 17:24 | 48.76336 | -75.42165 | 33789 ft | 364 kts | 215° |
| 2026-05-06 17:24 | 48.71950 | -75.45991 | 33788 ft | 364 kts | 215° |
| 2026-05-06 17:25 | 48.67565 | -75.49805 | 33787 ft | 364 kts | 215° |
| 2026-05-06 17:25 | 48.63199 | -75.53591 | 33810 ft | 364 kts | 215° |
| 2026-05-06 17:26 | 48.58780 | -75.57420 | 33773 ft | 365 kts | 215° |
| 2026-05-06 17:26 | 48.54379 | -75.61224 | 33782 ft | 365 kts | 215° |
| 2026-05-06 17:27 | 48.49974 | -75.65024 | 33787 ft | 365 kts | 215° |
| 2026-05-06 17:27 | 48.45569 | -75.68818 | 33785 ft | 365 kts | 215° |
| 2026-05-06 17:28 | 48.41159 | -75.72607 | 33769 ft | 365 kts | 215° |
| 2026-05-06 17:28 | 48.37512 | -75.75733 | 33791 ft | 361 kts | 215° |
| 2026-05-06 17:29 | 48.33138 | -75.79473 | 33791 ft | 361 kts | 215° |
| 2026-05-06 17:29 | 48.28764 | -75.83212 | 33795 ft | 362 kts | 215° |
| 2026-05-06 17:30 | 48.24386 | -75.86947 | 33789 ft | 361 kts | 215° |
| 2026-05-06 17:30 | 48.20044 | -75.90638 | 33772 ft | 361 kts | 214° |
| 2026-05-06 17:31 | 48.15692 | -75.94330 | 33796 ft | 360 kts | 214° |
| 2026-05-06 17:31 | 48.11332 | -75.98029 | 33802 ft | 360 kts | 214° |
| 2026-05-06 17:32 | 48.06972 | -76.01710 | 33803 ft | 360 kts | 214° |
| 2026-05-06 17:32 | 48.02611 | -76.05396 | 33804 ft | 360 kts | 214° |
| 2026-05-06 17:33 | 47.98248 | -76.09076 | 33802 ft | 360 kts | 214° |
| 2026-05-06 17:33 | 47.93912 | -76.12714 | 33805 ft | 360 kts | 214° |
| 2026-05-06 17:34 | 47.89547 | -76.16381 | 33809 ft | 360 kts | 214° |
| 2026-05-06 17:34 | 47.85182 | -76.20036 | 33809 ft | 360 kts | 214° |
| 2026-05-06 17:35 | 47.80816 | -76.23688 | 33779 ft | 360 kts | 214° |
| 2026-05-06 17:35 | 47.76452 | -76.27322 | 33798 ft | 359 kts | 214° |
| 2026-05-06 17:36 | 47.69910 | -76.32770 | 33810 ft | 360 kts | 214° |
| 2026-05-06 17:36 | 47.65537 | -76.36395 | 33823 ft | 360 kts | 214° |
| 2026-05-06 17:37 | 47.61162 | -76.40022 | 33800 ft | 360 kts | 214° |
| 2026-05-06 17:37 | 47.56784 | -76.43638 | 33819 ft | 360 kts | 214° |
| 2026-05-06 17:38 | 47.52401 | -76.47249 | 33815 ft | 360 kts | 214° |
| 2026-05-06 17:38 | 47.48035 | -76.50849 | 33816 ft | 361 kts | 214° |
| 2026-05-06 17:39 | 47.43639 | -76.54473 | 33815 ft | 362 kts | 214° |
| 2026-05-06 17:39 | 47.39231 | -76.58097 | 33804 ft | 363 kts | 214° |
| 2026-05-06 17:40 | 47.34806 | -76.61725 | 33838 ft | 363 kts | 214° |
| 2026-05-06 17:40 | 47.30387 | -76.65335 | 33812 ft | 364 kts | 213° |
| 2026-05-06 17:41 | 47.25953 | -76.68947 | 33821 ft | 364 kts | 213° |
| 2026-05-06 17:41 | 47.21513 | -76.72560 | 33801 ft | 365 kts | 213° |
| 2026-05-06 17:42 | 47.17062 | -76.76172 | 33814 ft | 365 kts | 213° |
| 2026-05-06 17:42 | 47.12612 | -76.79790 | 33815 ft | 365 kts | 213° |
| 2026-05-06 17:43 | 47.08189 | -76.83377 | 33814 ft | 366 kts | 213° |
| 2026-05-06 17:43 | 47.03728 | -76.86979 | 33783 ft | 366 kts | 213° |
| 2026-05-06 17:44 | 46.99252 | -76.90593 | 33806 ft | 368 kts | 213° |
| 2026-05-06 17:44 | 46.94789 | -76.94302 | 33814 ft | 368 kts | 214° |
| 2026-05-06 17:45 | 46.90332 | -76.97996 | 33817 ft | 368 kts | 214° |
| 2026-05-06 17:45 | 46.85869 | -77.01682 | 33818 ft | 368 kts | 214° |
| 2026-05-06 17:46 | 46.81386 | -77.05366 | 33805 ft | 370 kts | 214° |
| 2026-05-06 17:46 | 46.76922 | -77.09028 | 33816 ft | 370 kts | 214° |
| 2026-05-06 17:47 | 46.72430 | -77.12716 | 33818 ft | 370 kts | 214° |
| 2026-05-06 17:47 | 46.67935 | -77.16403 | 33817 ft | 370 kts | 214° |
| 2026-05-06 17:48 | 46.63434 | -77.20086 | 33810 ft | 372 kts | 214° |
| 2026-05-06 17:48 | 46.58919 | -77.23768 | 33822 ft | 372 kts | 214° |
| 2026-05-06 17:49 | 46.54401 | -77.27451 | 33828 ft | 372 kts | 214° |
| 2026-05-06 17:49 | 46.49877 | -77.31119 | 33825 ft | 372 kts | 214° |
| 2026-05-06 17:50 | 46.45347 | -77.34785 | 33804 ft | 374 kts | 214° |
| 2026-05-06 17:50 | 46.40785 | -77.38477 | 33827 ft | 375 kts | 214° |
| 2026-05-06 17:51 | 46.36250 | -77.42137 | 33825 ft | 375 kts | 214° |
| 2026-05-06 17:51 | 46.31692 | -77.45822 | 33828 ft | 375 kts | 214° |
| 2026-05-06 17:52 | 46.27124 | -77.49484 | 33817 ft | 374 kts | 214° |
| 2026-05-06 17:52 | 46.22592 | -77.53119 | 33828 ft | 372 kts | 214° |
| 2026-05-06 17:53 | 46.18068 | -77.56754 | 33829 ft | 372 kts | 213° |
| 2026-05-06 17:53 | 46.13545 | -77.60376 | 33839 ft | 372 kts | 213° |
| 2026-05-06 17:54 | 46.09011 | -77.63991 | 33832 ft | 372 kts | 213° |
| 2026-05-06 17:54 | 46.04474 | -77.67606 | 33844 ft | 372 kts | 213° |
| 2026-05-06 17:55 | 45.99965 | -77.71191 | 33840 ft | 372 kts | 214° |
| 2026-05-06 17:55 | 45.95426 | -77.74799 | 33838 ft | 372 kts | 213° |
| 2026-05-06 17:56 | 45.90885 | -77.78394 | 33808 ft | 373 kts | 213° |
| 2026-05-06 17:56 | 45.86324 | -77.82007 | 33827 ft | 375 kts | 213° |
| 2026-05-06 17:57 | 45.81751 | -77.85615 | 33841 ft | 376 kts | 213° |
| 2026-05-06 17:57 | 45.77205 | -77.89204 | 33840 ft | 376 kts | 213° |
| 2026-05-06 17:58 | 45.72618 | -77.92806 | 33816 ft | 376 kts | 213° |
| 2026-05-06 17:58 | 45.68017 | -77.96422 | 33840 ft | 377 kts | 213° |
| 2026-05-06 17:59 | 45.63409 | -78.00026 | 33849 ft | 377 kts | 213° |
| 2026-05-06 17:59 | 45.58804 | -78.03625 | 33855 ft | 377 kts | 213° |
| 2026-05-06 18:00 | 45.54203 | -78.07219 | 33827 ft | 377 kts | 213° |
| 2026-05-06 18:00 | 45.49589 | -78.10809 | 33860 ft | 379 kts | 213° |
| 2026-05-06 18:01 | 45.44950 | -78.14426 | 33865 ft | 380 kts | 213° |
| 2026-05-06 18:01 | 45.40328 | -78.18007 | 33849 ft | 380 kts | 213° |
| 2026-05-06 18:02 | 45.35679 | -78.21609 | 33832 ft | 380 kts | 213° |
| 2026-05-06 18:02 | 45.31020 | -78.25210 | 33856 ft | 383 kts | 213° |
| 2026-05-06 18:03 | 45.26326 | -78.28823 | 33866 ft | 383 kts | 213° |
| 2026-05-06 18:03 | 45.21642 | -78.32441 | 33872 ft | 383 kts | 213° |
| 2026-05-06 18:04 | 45.16959 | -78.36051 | 33856 ft | 383 kts | 213° |
| 2026-05-06 18:04 | 45.12256 | -78.39658 | 33874 ft | 385 kts | 213° |
| 2026-05-06 18:05 | 45.07556 | -78.43254 | 33879 ft | 381 kts | 213° |
| 2026-05-06 18:05 | 45.02930 | -78.46788 | 33877 ft | 380 kts | 213° |
| 2026-05-06 18:06 | 44.98250 | -78.50360 | 33863 ft | 386 kts | 213° |
| 2026-05-06 18:06 | 44.93521 | -78.53957 | 33882 ft | 387 kts | 213° |
| 2026-05-06 18:07 | 44.88780 | -78.57562 | 33885 ft | 387 kts | 213° |
| 2026-05-06 18:07 | 44.86414 | -78.59359 | 33508 ft | 384 kts | 213° |
| 2026-05-06 18:07 | 44.84077 | -78.61132 | 32898 ft | 379 kts | 214° |
| 2026-05-06 18:08 | 44.81760 | -78.62883 | 32319 ft | 375 kts | 214° |
| 2026-05-06 18:08 | 44.79484 | -78.64605 | 31868 ft | 367 kts | 214° |
| 2026-05-06 18:08 | 44.77294 | -78.66265 | 31562 ft | 358 kts | 214° |
| 2026-05-06 18:08 | 44.75105 | -78.67917 | 31289 ft | 357 kts | 215° |
| 2026-05-06 18:09 | 44.72922 | -78.69565 | 30942 ft | 353 kts | 215° |
| 2026-05-06 18:09 | 44.70764 | -78.71189 | 30433 ft | 351 kts | 215° |
| 2026-05-06 18:09 | 44.68620 | -78.72804 | 29890 ft | 349 kts | 216° |
| 2026-05-06 18:09 | 44.66485 | -78.74421 | 29265 ft | 348 kts | 216° |
| 2026-05-06 18:10 | 44.64357 | -78.76029 | 28690 ft | 345 kts | 215° |
| 2026-05-06 18:10 | 44.62250 | -78.77615 | 28149 ft | 341 kts | 215° |
| 2026-05-06 18:10 | 44.60164 | -78.79178 | 27657 ft | 338 kts | 214° |
| 2026-05-06 18:10 | 44.58107 | -78.80720 | 27179 ft | 334 kts | 214° |
| 2026-05-06 18:11 | 44.56065 | -78.82249 | 26685 ft | 331 kts | 214° |
| 2026-05-06 18:11 | 44.54723 | -78.83256 | 26353 ft | 329 kts | 214° |
| 2026-05-06 18:11 | 44.52029 | -78.85281 | 25702 ft | 327 kts | 214° |
| 2026-05-06 18:11 | 44.50028 | -78.86775 | 25233 ft | 324 kts | 214° |
| 2026-05-06 18:12 | 44.48044 | -78.88254 | 24770 ft | 322 kts | 214° |
| 2026-05-06 18:12 | 44.46098 | -78.89708 | 24290 ft | 321 kts | 214° |
| 2026-05-06 18:12 | 44.44135 | -78.91177 | 23783 ft | 319 kts | 214° |
| 2026-05-06 18:12 | 44.42176 | -78.92640 | 23288 ft | 318 kts | 214° |
| 2026-05-06 18:13 | 44.40237 | -78.94084 | 22766 ft | 314 kts | 214° |
| 2026-05-06 18:13 | 44.38314 | -78.95516 | 22267 ft | 311 kts | 214° |
| 2026-05-06 18:13 | 44.36417 | -78.96926 | 21776 ft | 307 kts | 214° |
| 2026-05-06 18:13 | 44.34543 | -78.98318 | 21296 ft | 303 kts | 214° |
| 2026-05-06 18:14 | 44.32698 | -78.99691 | 20835 ft | 299 kts | 214° |
| 2026-05-06 18:14 | 44.31488 | -79.00591 | 20532 ft | 296 kts | 214° |
| 2026-05-06 18:14 | 44.29088 | -79.02376 | 19958 ft | 290 kts | 214° |
| 2026-05-06 18:14 | 44.27300 | -79.03703 | 19539 ft | 288 kts | 213° |
| 2026-05-06 18:15 | 44.25556 | -79.04996 | 19135 ft | 287 kts | 214° |
| 2026-05-06 18:15 | 44.23891 | -79.06482 | 18757 ft | 282 kts | 220° |
| 2026-05-06 18:15 | 44.22309 | -79.08089 | 18363 ft | 281 kts | 220° |
| 2026-05-06 18:15 | 44.20741 | -79.09712 | 17942 ft | 279 kts | 220° |
| 2026-05-06 18:16 | 44.19183 | -79.11318 | 17523 ft | 278 kts | 220° |
| 2026-05-06 18:16 | 44.17630 | -79.12907 | 17119 ft | 277 kts | 220° |
| 2026-05-06 18:16 | 44.16081 | -79.14494 | 16734 ft | 275 kts | 220° |
| 2026-05-06 18:16 | 44.14543 | -79.16071 | 16374 ft | 274 kts | 220° |
| 2026-05-06 18:17 | 44.13011 | -79.17632 | 16029 ft | 273 kts | 220° |
| 2026-05-06 18:17 | 44.11997 | -79.18664 | 15805 ft | 272 kts | 220° |
| 2026-05-06 18:17 | 44.10470 | -79.20217 | 15457 ft | 272 kts | 220° |
| 2026-05-06 18:17 | 44.08943 | -79.21772 | 15088 ft | 272 kts | 220° |
| 2026-05-06 18:18 | 44.07424 | -79.23320 | 14763 ft | 267 kts | 220° |
| 2026-05-06 18:18 | 44.05944 | -79.24826 | 14449 ft | 263 kts | 220° |
| 2026-05-06 18:18 | 44.04463 | -79.26333 | 14114 ft | 263 kts | 220° |
| 2026-05-06 18:18 | 44.02983 | -79.27835 | 13785 ft | 264 kts | 220° |
| 2026-05-06 18:19 | 44.01495 | -79.29344 | 13417 ft | 264 kts | 219° |
| 2026-05-06 18:19 | 44.00012 | -79.30848 | 13051 ft | 264 kts | 220° |
| 2026-05-06 18:19 | 43.98528 | -79.32352 | 12708 ft | 263 kts | 219° |
| 2026-05-06 18:19 | 43.97048 | -79.33846 | 12363 ft | 263 kts | 219° |
| 2026-05-06 18:20 | 43.95585 | -79.35328 | 12020 ft | 262 kts | 219° |
| 2026-05-06 18:20 | 43.94113 | -79.36818 | 11677 ft | 261 kts | 219° |
| 2026-05-06 18:20 | 43.92648 | -79.38300 | 11313 ft | 261 kts | 219° |
| 2026-05-06 18:20 | 43.91183 | -79.39778 | 10978 ft | 260 kts | 219° |
| 2026-05-06 18:21 | 43.89721 | -79.41251 | 10662 ft | 259 kts | 219° |
| 2026-05-06 18:21 | 43.88265 | -79.42717 | 10344 ft | 258 kts | 219° |
| 2026-05-06 18:21 | 43.86815 | -79.44170 | 10034 ft | 257 kts | 218° |
| 2026-05-06 18:21 | 43.85220 | -79.45302 | 9698 ft | 261 kts | 203° |
| 2026-05-06 18:22 | 43.83466 | -79.45973 | 9332 ft | 262 kts | 199° |
| 2026-05-06 18:22 | 43.81700 | -79.46584 | 8969 ft | 261 kts | 199° |
| 2026-05-06 18:22 | 43.79936 | -79.47201 | 8620 ft | 260 kts | 199° |
| 2026-05-06 18:22 | 43.78187 | -79.47818 | 8275 ft | 259 kts | 199° |
| 2026-05-06 18:23 | 43.76436 | -79.48443 | 8016 ft | 261 kts | 198° |
| 2026-05-06 18:23 | 43.74669 | -79.49075 | 7974 ft | 262 kts | 198° |
| 2026-05-06 18:23 | 43.72904 | -79.49709 | 7979 ft | 262 kts | 199° |
| 2026-05-06 18:23 | 43.71157 | -79.50336 | 7990 ft | 262 kts | 199° |
| 2026-05-06 18:24 | 43.69368 | -79.50978 | 7997 ft | 262 kts | 199° |
| 2026-05-06 18:24 | 43.67600 | -79.51613 | 8000 ft | 262 kts | 199° |
| 2026-05-06 18:24 | 43.65871 | -79.52224 | 7742 ft | 258 kts | 198° |
| 2026-05-06 18:24 | 43.64156 | -79.52822 | 7539 ft | 249 kts | 198° |
| 2026-05-06 18:25 | 43.62515 | -79.53393 | 7380 ft | 237 kts | 198° |
| 2026-05-06 18:25 | 43.60950 | -79.53937 | 7182 ft | 228 kts | 198° |
| 2026-05-06 18:25 | 43.59486 | -79.54722 | 7005 ft | 224 kts | 217° |
| 2026-05-06 18:25 | 43.58348 | -79.56150 | 6873 ft | 222 kts | 229° |
| 2026-05-06 18:26 | 43.57304 | -79.57717 | 6749 ft | 222 kts | 229° |
| 2026-05-06 18:26 | 43.56252 | -79.59282 | 6629 ft | 222 kts | 229° |
| 2026-05-06 18:26 | 43.55195 | -79.60841 | 6490 ft | 223 kts | 229° |
| 2026-05-06 18:26 | 43.54124 | -79.62409 | 6368 ft | 224 kts | 229° |
| 2026-05-06 18:27 | 43.53052 | -79.63976 | 6234 ft | 225 kts | 229° |
| 2026-05-06 18:27 | 43.51977 | -79.65536 | 6106 ft | 224 kts | 228° |
| 2026-05-06 18:27 | 43.50910 | -79.67089 | 5893 ft | 223 kts | 228° |
| 2026-05-06 18:27 | 43.49842 | -79.68636 | 5560 ft | 222 kts | 228° |
| 2026-05-06 18:28 | 43.48781 | -79.70171 | 5184 ft | 221 kts | 228° |
| 2026-05-06 18:28 | 43.47718 | -79.71709 | 4798 ft | 221 kts | 229° |
| 2026-05-06 18:28 | 43.46724 | -79.73311 | 4408 ft | 219 kts | 241° |
| 2026-05-06 18:28 | 43.46253 | -79.75243 | 4029 ft | 216 kts | 265° |
| 2026-05-06 18:29 | 43.46441 | -79.77274 | 3649 ft | 216 kts | 289° |
| 2026-05-06 18:29 | 43.47252 | -79.79017 | 3247 ft | 219 kts | 314° |
| 2026-05-06 18:29 | 43.48532 | -79.80124 | 3008 ft | 215 kts | 340° |
| 2026-05-06 18:29 | 43.50027 | -79.80373 | 2974 ft | 222 kts | 4° |
| 2026-05-06 18:30 | 43.51544 | -79.79928 | 2994 ft | 222 kts | 10° |
| 2026-05-06 18:30 | 43.53046 | -79.79377 | 3004 ft | 227 kts | 17° |
| 2026-05-06 18:30 | 43.54476 | -79.78388 | 2998 ft | 232 kts | 32° |
| 2026-05-06 18:30 | 43.55728 | -79.76973 | 3000 ft | 234 kts | 42° |
| 2026-05-06 18:31 | 43.56736 | -79.75348 | 2972 ft | 212 kts | 46° |
| 2026-05-06 18:31 | 43.57750 | -79.73916 | 2940 ft | 205 kts | 46° |
| 2026-05-06 18:31 | 43.58695 | -79.72543 | 2776 ft | 188 kts | 44° |
| 2026-05-06 18:31 | 43.59574 | -79.71269 | 2522 ft | 179 kts | 44° |
| 2026-05-06 18:32 | 43.60413 | -79.70053 | 2298 ft | 172 kts | 44° |
| 2026-05-06 18:32 | 43.61195 | -79.68918 | 2047 ft | 156 kts | 44° |
| 2026-05-06 18:32 | 43.61905 | -79.67887 | 1804 ft | 137 kts | 43° |
| 2026-05-06 18:32 | 43.62538 | -79.66969 | 1590 ft | 132 kts | 43° |
| 2026-05-06 18:33 | 43.63173 | -79.66049 | 1398 ft | 132 kts | 43° |
| 2026-05-06 18:33 | 43.63804 | -79.65133 | 1205 ft | 132 kts | 43° |
| 2026-05-06 18:33 | 43.64433 | -79.64220 | 1024 ft | 130 kts | 43° |
| 2026-05-06 18:33 | 43.65055 | -79.63312 | 843 ft | 130 kts | 43° |
| 2026-05-06 18:34 | 43.65670 | -79.62407 | 669 ft | 128 kts | 41° |
| 2026-05-06 18:34 | 43.66281 | -79.61522 | 575 ft | 122 kts | 41° |
| 2026-05-06 18:34 | 43.66748 | -79.60855 | 566 ft | 57 kts | 44° |
| 2026-05-06 18:34 | 43.66913 | -79.60617 | 564 ft | 33 kts | 44° |
| 2026-05-06 18:35 | 43.66980 | -79.60558 | 567 ft | 7 kts | 356° |
| 2026-05-06 18:35 | 43.67051 | -79.60547 | 568 ft | 12 kts | 18° |
| 2026-05-06 18:35 | 43.67135 | -79.60508 | 569 ft | 13 kts | 20° |
| 2026-05-06 18:35 | 43.67226 | -79.60539 | 566 ft | 17 kts | 316° |
| 2026-05-06 18:36 | 43.67315 | -79.60655 | 564 ft | 18 kts | 317° |
| 2026-05-06 18:36 | 43.67412 | -79.60780 | 563 ft | 20 kts | 317° |
| 2026-05-06 18:36 | 43.67425 | -79.60919 | 570 ft | 19 kts | 224° |
| 2026-05-06 18:36 | 43.67343 | -79.61065 | 568 ft | 20 kts | 233° |
| 2026-05-06 18:37 | 43.67263 | -79.61225 | 571 ft | 22 kts | 277° |
| 2026-05-06 18:37 | 43.67364 | -79.61376 | 567 ft | 23 kts | 316° |
| 2026-05-06 18:37 | 43.67483 | -79.61528 | 570 ft | 24 kts | 316° |
| 2026-05-06 18:37 | 43.67608 | -79.61691 | 569 ft | 25 kts | 316° |
| 2026-05-06 18:38 | 43.67740 | -79.61863 | 571 ft | 27 kts | 316° |
| 2026-05-06 18:38 | 43.67878 | -79.62044 | 574 ft | 28 kts | 314° |
| 2026-05-06 18:38 | 43.67918 | -79.62158 | 571 ft | 13 kts | 290° |
| 2026-05-06 18:38 | 43.67986 | -79.62255 | 571 ft | 15 kts | 317° |
| 2026-05-06 18:39 | 43.68067 | -79.62360 | 571 ft | 17 kts | 317° |
| 2026-05-06 18:39 | 43.68157 | -79.62475 | 569 ft | 18 kts | 317° |
| 2026-05-06 18:39 | 43.68252 | -79.62597 | 570 ft | 20 kts | 317° |
| 2026-05-06 18:40 | 43.68344 | -79.62877 | 573 ft | 20 kts | 223° |
| 2026-05-06 18:40 | 43.68246 | -79.63024 | 574 ft | 22 kts | 226° |
| 2026-05-06 18:40 | 43.68163 | -79.63177 | 573 ft | 20 kts | 303° |
| 2026-05-06 18:40 | 43.68265 | -79.63306 | 574 ft | 21 kts | 315° |
| 2026-05-06 18:41 | 43.68312 | -79.63454 | 574 ft | 16 kts | 213° |
| 2026-05-06 18:41 | 43.68235 | -79.63571 | 572 ft | 17 kts | 238° |
| 2026-05-06 18:41 | 43.68158 | -79.63709 | 572 ft | 19 kts | 224° |
| 2026-05-06 18:41 | 43.68062 | -79.63846 | 573 ft | 21 kts | 227° |
| 2026-05-06 18:42 | 43.68035 | -79.63883 | 577 ft | 2 kts | 210° |
| 2026-05-06 18:42 | 43.68006 | -79.63890 | 575 ft | 7 kts | 180° |
| 2026-05-06 18:42 | 43.67957 | -79.63857 | 572 ft | 0 kts | 131° |
| 2026-05-06 18:44 | 43.67953 | -79.63848 | 572 ft | 1 kts | 116° |
| 2026-05-06 18:44 | 43.67953 | -79.63847 | 572 ft | 3 kts | 114° |
| 2026-05-06 18:44 | 43.67952 | -79.63805 | 572 ft | 0 kts | 81° |
| 2026-05-06 18:45 | 43.67953 | -79.63795 | 575 ft | 2 kts | 78° |
| 2026-05-06 18:45 | 43.67955 | -79.63775 | 575 ft | 6 kts | 83° |
| 2026-05-06 18:45 | 43.67960 | -79.63733 | 578 ft | 0 kts | 81° |
| 2026-05-06 18:46 | 43.67960 | -79.63728 | 576 ft | 0 kts | 80° |